createdAt,value
2018-09-12T00:00:46.082Z,6.10
2018-09-12T00:03:14.708Z,6.00
2018-09-12T00:05:43.350Z,5.67
2018-09-12T00:08:11.986Z,5.57
2018-09-12T00:10:40.611Z,5.53
2018-09-12T00:13:09.237Z,5.97
2018-09-12T00:15:37.851Z,5.90
2018-09-12T00:18:06.488Z,6.03
2018-09-12T00:20:35.119Z,6.07
2018-09-12T00:23:03.771Z,6.40
2018-09-12T00:25:32.431Z,6.20
2018-09-12T00:28:01.181Z,5.90
2018-09-12T00:30:29.842Z,6.60
2018-09-12T00:32:58.490Z,6.27
2018-09-12T00:35:27.119Z,6.50
2018-09-12T00:37:55.804Z,5.80
2018-09-12T00:40:24.428Z,6.90
2018-09-12T00:42:53.068Z,6.60
2018-09-12T00:45:21.704Z,5.73
2018-09-12T00:47:50.310Z,6.33
2018-09-12T00:50:18.964Z,6.17
2018-09-12T00:52:47.620Z,6.30
2018-09-12T00:55:16.220Z,5.97
2018-09-12T00:57:44.843Z,6.03
2018-09-12T01:00:13.514Z,6.13
2018-09-12T01:02:42.152Z,5.93
2018-09-12T01:05:10.960Z,6.53
2018-09-12T01:07:39.601Z,6.40
2018-09-12T01:10:08.264Z,6.73
2018-09-12T01:12:36.927Z,6.20
2018-09-12T01:15:05.670Z,6.87
2018-09-12T01:17:34.300Z,6.83
2018-09-12T01:20:02.947Z,7.83
2018-09-12T01:22:31.582Z,7.73
2018-09-12T01:25:00.316Z,8.07
2018-09-12T01:27:28.959Z,8.10
2018-09-12T01:29:57.591Z,8.20
2018-09-12T01:32:26.323Z,8.23
2018-09-12T01:34:55.382Z,8.47
2018-09-12T01:37:24.014Z,8.80
2018-09-12T01:39:52.643Z,8.23
2018-09-12T01:42:21.342Z,8.83
2018-09-12T01:44:50.079Z,9.27
2018-09-12T01:47:18.693Z,9.63
2018-09-12T01:49:47.369Z,9.50
2018-09-12T01:52:15.973Z,9.40
2018-09-12T01:54:44.586Z,9.27
2018-09-12T01:57:13.203Z,9.53
2018-09-12T01:59:41.851Z,9.23
2018-09-12T02:02:10.563Z,9.37
2018-09-12T02:04:39.240Z,9.10
2018-09-12T02:07:07.925Z,9.10
2018-09-12T02:09:36.574Z,10.30
2018-09-12T02:12:05.245Z,9.50
2018-09-12T02:14:33.936Z,10.47
2018-09-12T02:17:03.100Z,11.17
2018-09-12T02:19:31.747Z,11.10
2018-09-12T02:23:29.696Z,10.90
2018-09-12T02:25:58.381Z,10.43
2018-09-12T02:28:27.028Z,9.93
2018-09-12T02:30:55.784Z,10.70
2018-09-12T02:33:24.540Z,10.10
2018-09-12T02:35:58.339Z,9.37
2018-09-12T02:38:26.992Z,10.30
2018-09-12T02:40:55.893Z,11.23
2018-09-12T02:43:24.694Z,10.57
2018-09-12T02:45:53.497Z,10.60
2018-09-12T02:48:22.348Z,9.93
2018-09-12T02:50:51.168Z,10.63
2018-09-12T02:53:19.959Z,11.13
2018-09-12T02:55:48.723Z,10.90
2018-09-12T02:58:17.501Z,10.90
2018-09-12T03:00:46.327Z,10.47
2018-09-12T03:03:15.077Z,10.13
2018-09-12T03:05:43.848Z,10.33
2018-09-12T03:08:12.772Z,9.97
2018-09-12T03:10:41.536Z,10.60
2018-09-12T03:13:10.290Z,10.50
2018-09-12T03:15:39.025Z,9.77
2018-09-12T03:18:07.762Z,11.17
2018-09-12T03:20:36.530Z,10.93
2018-09-12T03:23:05.174Z,10.47
2018-09-12T03:25:33.835Z,9.97
2018-09-12T03:28:02.490Z,10.70
2018-09-12T03:30:31.109Z,10.43
2018-09-12T03:32:59.768Z,10.50
2018-09-12T03:35:28.432Z,9.93
2018-09-12T03:37:57.075Z,10.53
2018-09-12T03:40:25.737Z,10.60
2018-09-12T03:42:54.329Z,10.67
2018-09-12T03:45:23.065Z,10.13
2018-09-12T03:47:51.831Z,11.33
2018-09-12T03:50:20.455Z,10.40
2018-09-12T03:52:49.118Z,11.03
2018-09-12T03:55:17.842Z,11.87
2018-09-12T03:57:46.511Z,11.83
2018-09-12T04:00:15.910Z,11.97
2018-09-12T04:02:44.620Z,11.87
2018-09-12T04:05:13.347Z,11.97
2018-09-12T04:07:41.976Z,12.00
2018-09-12T04:10:10.644Z,12.30
2018-09-12T04:12:39.326Z,12.07
2018-09-12T04:15:08.205Z,11.77
2018-09-12T04:17:37.888Z,11.63
2018-09-12T04:20:06.576Z,11.53
2018-09-12T04:22:35.175Z,11.97
2018-09-12T04:25:03.889Z,12.37
2018-09-12T04:27:32.545Z,12.10
2018-09-12T04:30:01.212Z,11.83
2018-09-12T04:32:29.956Z,12.60
2018-09-12T04:34:58.636Z,11.83
2018-09-12T04:37:27.321Z,12.37
2018-09-12T04:39:55.956Z,11.67
2018-09-12T04:42:25.019Z,11.97
2018-09-12T04:44:53.684Z,11.97
2018-09-12T04:47:22.404Z,11.87
2018-09-12T04:49:51.083Z,13.03
2018-09-12T04:52:19.717Z,13.13
2018-09-12T04:54:48.386Z,13.00
2018-09-12T04:57:17.079Z,12.03
2018-09-12T04:59:45.787Z,12.30
2018-09-12T05:02:14.494Z,12.37
2018-09-12T05:04:43.144Z,12.57
2018-09-12T05:07:11.816Z,11.70
2018-09-12T05:09:41.991Z,13.03
2018-09-12T05:12:10.664Z,13.33
2018-09-12T05:14:39.604Z,12.83
2018-09-12T05:17:08.321Z,13.10
2018-09-12T05:19:37.104Z,11.93
2018-09-12T05:22:06.017Z,12.10
2018-09-12T05:24:34.713Z,13.17
2018-09-12T05:27:03.576Z,12.00
2018-09-12T05:29:32.289Z,12.57
2018-09-12T05:32:00.973Z,12.10
2018-09-12T05:34:29.719Z,12.83
2018-09-12T05:36:58.464Z,12.97
2018-09-12T05:39:27.197Z,12.47
2018-09-12T05:41:55.916Z,14.13
2018-09-12T05:44:24.596Z,13.90
2018-09-12T05:46:53.247Z,14.57
2018-09-12T05:49:21.951Z,13.93
2018-09-12T05:51:50.649Z,15.57
2018-09-12T05:54:19.343Z,13.77
2018-09-12T05:56:48.062Z,15.80
2018-09-12T05:59:16.739Z,14.87
2018-09-12T06:01:45.521Z,14.83
2018-09-12T06:04:14.223Z,15.40
2018-09-12T06:06:42.972Z,15.10
2018-09-12T06:09:11.715Z,15.40
2018-09-12T06:11:40.371Z,15.17
2018-09-12T06:14:09.310Z,15.13
2018-09-12T06:16:37.987Z,14.87
2018-09-12T06:19:06.713Z,16.27
2018-09-12T06:21:35.711Z,16.03
2018-09-12T06:24:04.444Z,15.30
2018-09-12T06:26:33.219Z,13.70
2018-09-12T06:30:06.576Z,13.90
2018-09-12T06:32:35.440Z,11.57
2018-09-12T06:35:04.300Z,8.80
2018-09-12T06:37:33.292Z,9.07
2018-09-12T06:40:02.384Z,8.87
2018-09-12T06:42:31.369Z,8.57
2018-09-12T06:45:00.342Z,9.03
2018-09-12T06:47:29.742Z,8.50
2018-09-12T06:49:59.149Z,8.07
2018-09-12T06:52:30.318Z,8.27
2018-09-12T06:54:59.180Z,9.30
2018-09-12T06:57:28.444Z,7.40
2018-09-12T06:59:57.197Z,7.13
2018-09-12T07:02:26.220Z,8.30
2018-09-12T07:04:55.216Z,7.80
2018-09-12T07:07:24.392Z,7.97
2018-09-12T07:09:53.208Z,8.70
2018-09-12T07:12:22.394Z,8.27
2018-09-12T07:14:51.405Z,8.40
2018-09-12T07:17:20.283Z,7.73
2018-09-12T07:19:49.209Z,7.63
2018-09-12T07:22:18.039Z,7.70
2018-09-12T07:24:46.913Z,7.67
2018-09-12T07:27:15.973Z,8.27
2018-09-12T07:29:44.880Z,7.50
2018-09-12T07:32:13.983Z,8.27
2018-09-12T07:34:42.821Z,7.93
2018-09-12T07:37:11.825Z,7.40
2018-09-12T07:39:40.787Z,6.37
2018-09-12T07:42:09.987Z,5.80
2018-09-12T07:44:38.960Z,5.47
2018-09-12T07:47:07.884Z,5.30
2018-09-12T07:49:36.870Z,5.67
2018-09-12T07:52:05.993Z,5.67
2018-09-12T07:54:34.864Z,5.47
2018-09-12T07:57:03.845Z,4.93
2018-09-12T07:59:32.861Z,6.27
2018-09-12T08:02:01.718Z,5.67
2018-09-12T08:04:30.645Z,5.60
2018-09-12T08:06:59.930Z,6.00
2018-09-12T08:09:28.924Z,5.60
2018-09-12T08:11:57.878Z,5.30
2018-09-12T08:14:26.613Z,5.20
2018-09-12T08:16:55.536Z,5.20
2018-09-12T08:19:24.469Z,5.50
2018-09-12T08:21:53.401Z,4.80
2018-09-12T08:24:22.380Z,5.20
2018-09-12T08:26:51.314Z,5.00
2018-09-12T08:29:20.231Z,5.10
2018-09-12T08:31:49.190Z,4.87
2018-09-12T08:34:18.217Z,4.77
2018-09-12T08:36:47.145Z,4.40
2018-09-12T08:39:16.038Z,4.80
2018-09-12T08:41:44.873Z,5.00
2018-09-12T08:44:13.695Z,5.67
2018-09-12T08:46:42.693Z,5.17
2018-09-12T08:49:11.561Z,4.80
2018-09-12T08:51:40.673Z,5.17
2018-09-12T08:54:09.600Z,4.73
2018-09-12T08:56:38.530Z,4.90
2018-09-12T08:59:07.480Z,4.97
2018-09-12T09:01:36.410Z,5.00
2018-09-12T09:04:05.332Z,4.60
2018-09-12T09:06:34.235Z,5.13
2018-09-12T09:09:03.082Z,5.00
2018-09-12T09:11:31.889Z,4.53
2018-09-12T09:14:00.929Z,4.70
2018-09-12T09:16:29.846Z,4.87
2018-09-12T09:18:58.652Z,4.83
2018-09-12T09:21:27.580Z,4.93
2018-09-12T09:23:56.305Z,4.93
2018-09-12T09:26:25.237Z,4.87
2018-09-12T09:28:55.214Z,5.47
2018-09-12T09:31:24.107Z,4.17
2018-09-12T09:33:53.080Z,4.43
2018-09-12T09:36:22.002Z,4.60
2018-09-12T09:38:50.875Z,4.97
2018-09-12T09:41:19.676Z,4.43
2018-09-12T09:43:48.630Z,4.40
2018-09-12T09:46:17.717Z,4.80
2018-09-12T09:48:46.825Z,4.97
2018-09-12T09:51:15.905Z,4.70
2018-09-12T09:53:44.857Z,4.50
2018-09-12T09:56:13.893Z,4.80
2018-09-12T09:58:42.798Z,5.00
2018-09-12T10:01:16.747Z,5.10
2018-09-12T10:03:51.225Z,4.70
2018-09-12T10:06:21.413Z,5.13
2018-09-12T10:08:55.502Z,4.70
2018-09-12T10:11:24.730Z,5.63
2018-09-12T10:13:53.943Z,4.97
2018-09-12T10:16:23.194Z,4.87
2018-09-12T10:18:52.316Z,5.00
2018-09-12T10:21:21.129Z,4.40
2018-09-12T10:23:50.169Z,4.55
2018-09-12T10:26:19.166Z,4.47
2018-09-12T10:28:48.136Z,4.40
2018-09-12T10:31:17.049Z,4.67
2018-09-12T10:33:45.913Z,4.60
2018-09-12T10:36:14.737Z,4.67
2018-09-12T10:38:43.672Z,4.70
2018-09-12T10:41:12.385Z,4.53
2018-09-12T10:43:41.241Z,4.55
2018-09-12T10:46:10.090Z,4.17
2018-09-12T10:48:53.275Z,4.53
2018-09-12T10:51:22.269Z,4.60
2018-09-12T10:53:51.161Z,4.33
2018-09-12T10:56:20.021Z,5.15
2018-09-12T10:58:49.024Z,4.45
2018-09-12T11:01:18.100Z,4.75
2018-09-12T11:03:46.865Z,5.08
2018-09-12T11:06:15.728Z,5.10
2018-09-12T11:08:44.609Z,4.28
2018-09-12T11:11:13.742Z,4.50
2018-09-12T11:13:42.569Z,4.37
2018-09-12T11:16:11.453Z,4.10
2018-09-12T11:18:40.361Z,4.37
2018-09-12T11:21:09.255Z,4.25
2018-09-12T11:23:38.053Z,4.42
2018-09-12T11:26:07.260Z,4.30
2018-09-12T11:29:39.277Z,4.20
2018-09-12T11:32:08.232Z,3.72
2018-09-12T11:34:37.039Z,4.53
2018-09-12T11:37:06.411Z,3.92
2018-09-12T11:39:35.355Z,4.37
2018-09-12T11:42:04.354Z,3.75
2018-09-12T11:44:33.126Z,4.10
2018-09-12T11:47:01.969Z,4.37
2018-09-12T11:49:30.860Z,4.30
2018-09-12T11:51:59.916Z,3.83
2018-09-12T11:54:29.142Z,4.37
2018-09-12T11:56:58.057Z,4.85
2018-09-12T11:59:26.963Z,4.25
2018-09-12T12:01:55.894Z,4.28
2018-09-12T12:04:24.745Z,3.98
2018-09-12T12:06:53.692Z,4.00
2018-09-12T12:09:22.540Z,4.40
2018-09-12T12:11:51.559Z,3.90
2018-09-12T12:14:20.597Z,4.20
2018-09-12T12:16:49.457Z,4.40
2018-09-12T12:19:18.279Z,4.60
2018-09-12T12:21:47.103Z,4.60
2018-09-12T12:24:16.018Z,4.47
2018-09-12T12:26:44.971Z,4.12
2018-09-12T12:29:13.921Z,4.15
2018-09-12T12:31:42.790Z,3.60
2018-09-12T12:34:12.809Z,3.90
2018-09-12T12:36:41.763Z,4.17
2018-09-12T12:39:11.965Z,4.28
2018-09-12T12:41:40.825Z,4.53
2018-09-12T12:44:09.793Z,3.70
2018-09-12T12:46:38.638Z,4.72
2018-09-12T12:49:07.449Z,4.17
2018-09-12T12:51:37.190Z,3.90
2018-09-12T12:54:06.105Z,4.50
2018-09-12T12:56:34.965Z,3.73
2018-09-12T12:59:04.022Z,4.60
2018-09-12T13:01:32.957Z,4.20
2018-09-12T13:04:01.885Z,3.93
2018-09-12T13:06:30.786Z,4.65
2018-09-12T13:08:59.773Z,4.83
2018-09-12T13:11:28.697Z,4.05
2018-09-12T13:13:57.564Z,4.15
2018-09-12T13:16:26.540Z,4.55
2018-09-12T13:18:55.472Z,4.10
2018-09-12T13:21:24.513Z,4.15
2018-09-12T13:23:53.377Z,4.03
2018-09-12T13:26:22.291Z,4.37
2018-09-12T13:28:51.096Z,4.08
2018-09-12T13:31:20.019Z,4.05
2018-09-12T13:33:49.154Z,4.78
2018-09-12T13:36:18.135Z,4.17
2018-09-12T13:38:47.117Z,4.17
2018-09-12T13:41:15.970Z,4.30
2018-09-12T13:43:45.024Z,4.50
2018-09-12T13:46:13.855Z,4.50
2018-09-12T13:48:42.716Z,4.50
2018-09-12T13:51:11.675Z,4.05
2018-09-12T13:53:40.599Z,4.50
2018-09-12T13:56:09.417Z,4.83
2018-09-12T13:58:38.354Z,4.37
2018-09-12T14:01:07.516Z,4.10
2018-09-12T14:03:36.447Z,3.65
2018-09-12T14:06:05.435Z,4.10
2018-09-12T14:08:34.354Z,4.10
2018-09-12T14:11:03.178Z,4.00
2018-09-12T14:13:32.015Z,4.35
2018-09-12T14:16:00.818Z,4.17
2018-09-12T14:18:29.718Z,3.92
2018-09-12T14:20:58.538Z,4.20
2018-09-12T14:23:27.400Z,3.22
2018-09-12T14:25:56.227Z,3.55
2018-09-12T14:28:25.063Z,3.80
2018-09-12T14:30:53.910Z,4.17
2018-09-12T14:33:22.919Z,3.70
2018-09-12T14:35:51.774Z,3.50
2018-09-12T14:38:20.611Z,3.47
2018-09-12T14:40:49.483Z,3.85
2018-09-12T14:43:18.395Z,3.72
2018-09-12T14:45:47.894Z,3.98
2018-09-12T14:48:16.809Z,4.17
2018-09-12T14:50:45.849Z,3.58
2018-09-12T14:53:14.623Z,4.40
2018-09-12T14:55:45.783Z,3.75
2018-09-12T14:58:15.258Z,3.95
2018-09-12T15:00:44.122Z,3.90
2018-09-12T15:03:12.795Z,3.65
2018-09-12T15:05:41.534Z,4.20
2018-09-12T15:08:10.622Z,4.17
2018-09-12T15:10:39.498Z,4.17
2018-09-12T15:13:08.288Z,4.43
2018-09-12T15:15:37.085Z,3.52
2018-09-12T15:18:06.081Z,4.40
2018-09-12T15:20:34.841Z,4.23
2018-09-12T15:23:03.593Z,4.03
2018-09-12T15:25:32.270Z,3.80
2018-09-12T15:28:00.999Z,5.17
2018-09-12T15:30:29.784Z,4.13
2018-09-12T15:32:58.508Z,4.37
2018-09-12T15:35:27.236Z,4.47
2018-09-12T15:37:55.964Z,4.20
2018-09-12T15:40:25.150Z,4.70
2018-09-12T15:42:53.876Z,4.73
2018-09-12T15:45:22.565Z,4.50
2018-09-12T15:47:55.549Z,4.57
2018-09-12T15:50:25.406Z,4.03
2018-09-12T15:52:54.886Z,4.13
2018-09-12T15:55:23.851Z,4.27
2018-09-12T15:57:52.553Z,4.70
2018-09-12T16:00:23.080Z,4.90
2018-09-12T16:02:55.885Z,5.60
2018-09-12T16:05:24.614Z,11.77
2018-09-12T16:07:54.001Z,5.07
2018-09-12T16:10:22.802Z,5.17
2018-09-12T16:12:51.567Z,4.80
2018-09-12T16:15:20.303Z,6.07
2018-09-12T16:17:49.031Z,4.83
2018-09-12T16:20:17.941Z,5.80
2018-09-12T16:22:55.802Z,6.37
2018-09-12T16:28:31.582Z,5.57
2018-09-12T16:31:00.352Z,5.13
2018-09-12T16:33:29.150Z,7.60
2018-09-12T16:35:57.997Z,4.90
2018-09-12T16:38:26.746Z,4.83
2018-09-12T16:40:55.578Z,5.40
2018-09-12T16:43:24.332Z,5.17
2018-09-12T16:45:53.202Z,5.60
2018-09-12T16:48:21.933Z,5.17
2018-09-12T16:50:50.631Z,5.27
2018-09-12T16:53:19.479Z,5.90
2018-09-12T16:55:48.185Z,5.43
2018-09-12T16:58:16.900Z,5.83
2018-09-12T17:00:45.726Z,5.63
2018-09-12T17:03:14.438Z,7.10
2018-09-12T17:05:43.775Z,6.63
2018-09-12T17:08:12.549Z,5.63
2018-09-12T17:10:41.367Z,5.60
2018-09-12T17:13:10.040Z,6.20
2018-09-12T17:15:38.784Z,5.83
2018-09-12T17:18:07.684Z,6.43
2018-09-12T17:20:36.465Z,7.33
2018-09-12T17:23:05.271Z,10.33
2018-09-12T17:25:34.050Z,6.80
2018-09-12T17:28:02.813Z,6.40
2018-09-12T17:30:31.653Z,9.30
2018-09-12T17:33:00.785Z,9.23
2018-09-12T17:35:29.681Z,6.27
2018-09-12T17:37:58.465Z,5.97
2018-09-12T17:40:27.179Z,6.53
2018-09-12T17:42:55.987Z,6.93
2018-09-12T17:45:25.388Z,7.33
2018-09-12T17:47:54.268Z,7.43
2018-09-12T17:50:22.978Z,6.60
2018-09-12T17:52:51.639Z,6.67
2018-09-12T17:55:20.427Z,6.67
2018-09-12T17:57:49.173Z,6.77
2018-09-12T18:00:17.955Z,6.80
2018-09-12T18:02:46.787Z,7.77
2018-09-12T18:05:15.566Z,7.33
2018-09-12T18:07:44.611Z,7.97
2018-09-12T18:10:13.512Z,7.80
2018-09-12T18:12:42.221Z,7.67
2018-09-12T18:15:11.023Z,6.80
2018-09-12T18:17:39.783Z,6.43
2018-09-12T18:20:08.578Z,6.17
2018-09-12T18:22:37.328Z,6.27
2018-09-12T18:25:07.977Z,6.40
2018-09-12T18:27:36.702Z,7.50
2018-09-12T18:30:09.596Z,7.30
2018-09-12T18:32:38.464Z,6.97
2018-09-12T18:35:07.299Z,7.00
2018-09-12T18:37:36.105Z,6.97
2018-09-12T18:40:05.102Z,7.03
2018-09-12T18:42:33.926Z,7.20
2018-09-12T18:45:02.725Z,7.10
2018-09-12T18:47:31.520Z,6.90
2018-09-12T18:50:00.432Z,7.60
2018-09-12T18:52:29.091Z,7.27
2018-09-12T18:54:58.036Z,7.27
2018-09-12T18:57:26.834Z,6.93
2018-09-12T18:59:55.708Z,6.97
2018-09-12T19:02:24.492Z,6.90
2018-09-12T19:04:53.419Z,7.67
2018-09-12T19:07:22.310Z,7.73
2018-09-12T19:09:51.062Z,7.23
2018-09-12T19:12:19.964Z,7.77
2018-09-12T19:14:48.766Z,7.37
2018-09-12T19:17:17.420Z,7.47
2018-09-12T19:19:46.129Z,25.47
2018-09-12T19:22:14.936Z,7.60
2018-09-12T19:24:43.700Z,6.83
2018-09-12T19:27:12.617Z,11.90
2018-09-12T19:29:41.334Z,9.30
2018-09-12T19:32:10.111Z,6.53
2018-09-12T19:34:38.853Z,7.00
2018-09-12T19:37:07.819Z,7.37
2018-09-12T19:39:36.699Z,7.23
2018-09-12T19:42:05.733Z,7.37
2018-09-12T19:44:34.429Z,7.23
2018-09-12T19:47:03.846Z,6.53
2018-09-12T19:49:32.545Z,6.80
2018-09-12T19:52:01.266Z,27.80
2018-09-12T19:54:30.037Z,12.13
2018-09-12T19:56:58.754Z,19.60
2018-09-12T19:59:27.500Z,8.60
2018-09-12T20:01:56.149Z,7.10
2018-09-12T20:04:25.132Z,6.77
2018-09-12T20:06:53.921Z,6.77
2018-09-12T20:09:22.705Z,6.57
2018-09-12T20:12:46.247Z,7.23
2018-09-12T20:15:15.064Z,6.97
2018-09-12T20:17:44.050Z,7.53
2018-09-12T20:20:12.784Z,6.80
2018-09-12T20:22:41.646Z,6.50
2018-09-12T20:25:10.645Z,6.43
2018-09-12T20:27:39.465Z,6.83
2018-09-12T20:30:08.458Z,6.70
2018-09-12T20:32:37.113Z,7.17
2018-09-12T20:35:05.813Z,8.37
2018-09-12T20:37:34.855Z,15.37
2018-09-12T20:40:03.706Z,7.47
2018-09-12T20:42:33.646Z,6.83
2018-09-12T20:45:02.358Z,7.60
2018-09-12T20:47:31.117Z,7.47
2018-09-12T20:50:00.159Z,7.33
2018-09-12T20:52:28.944Z,6.90
2018-09-12T20:54:57.666Z,9.87
2018-09-12T20:57:26.594Z,10.40
2018-09-12T20:59:55.443Z,8.67
2018-09-12T21:02:24.177Z,8.20
2018-09-12T21:04:53.886Z,7.73
2018-09-12T21:07:22.638Z,8.20
2018-09-12T21:09:52.638Z,8.27
2018-09-12T21:12:21.676Z,8.10
2018-09-12T21:14:50.350Z,7.00
2018-09-12T21:17:19.078Z,7.83
2018-09-12T21:19:47.877Z,9.97
2018-09-12T21:22:16.596Z,9.53
2018-09-12T21:24:45.311Z,7.07
2018-09-12T21:27:14.126Z,8.60
2018-09-12T21:29:42.974Z,8.50
2018-09-12T21:32:11.781Z,9.37
2018-09-12T21:34:40.567Z,7.70
2018-09-12T21:37:09.248Z,7.80
2018-09-12T21:39:38.082Z,8.30
2018-09-12T21:42:06.881Z,8.33
2018-09-12T21:44:35.625Z,8.70
2018-09-12T21:47:04.439Z,7.27
2018-09-12T21:49:33.158Z,7.90
2018-09-12T21:52:01.879Z,7.80
2018-09-12T21:54:30.759Z,8.30
2018-09-12T21:56:59.562Z,8.30
2018-09-12T21:59:28.334Z,7.53
2018-09-12T22:01:57.102Z,8.00
2018-09-12T22:04:25.914Z,9.10
2018-09-12T22:06:54.696Z,9.20
2018-09-12T22:09:23.376Z,8.03
2018-09-12T22:11:52.074Z,9.00
2018-09-12T22:14:20.822Z,9.33
2018-09-12T22:16:49.507Z,9.77
2018-09-12T22:19:18.184Z,8.50
2018-09-12T22:21:47.003Z,8.60
2018-09-12T22:24:15.737Z,9.47
2018-09-12T22:26:44.496Z,9.30
2018-09-12T22:29:13.187Z,9.50
2018-09-12T22:31:41.895Z,9.30
2018-09-12T22:34:10.618Z,9.07
2018-09-12T22:36:39.444Z,9.43
2018-09-12T22:39:10.399Z,8.90
2018-09-12T22:41:39.400Z,9.43
2018-09-12T22:44:08.074Z,9.23
2018-09-12T22:46:36.804Z,8.93
2018-09-12T22:49:05.590Z,8.77
2018-09-12T22:51:34.346Z,9.23
2018-09-12T22:54:03.099Z,9.30
2018-09-12T22:56:31.843Z,9.00
2018-09-12T22:59:01.348Z,8.10
2018-09-12T23:01:30.011Z,9.10
2018-09-12T23:03:58.655Z,8.53
2018-09-12T23:06:27.375Z,8.50
2018-09-12T23:08:56.319Z,8.83
2018-09-12T23:11:25.154Z,8.80
2018-09-12T23:13:53.903Z,8.77
2018-09-12T23:16:22.675Z,8.13
2018-09-12T23:18:51.424Z,9.27
2018-09-12T23:21:20.232Z,8.63
2018-09-12T23:23:49.034Z,9.07
2018-09-12T23:26:17.824Z,9.07
2018-09-12T23:28:46.523Z,8.70
2018-09-12T23:31:15.207Z,8.80
2018-09-12T23:33:43.839Z,8.70
2018-09-12T23:36:12.535Z,8.93
2018-09-12T23:38:41.295Z,8.87
2018-09-12T23:41:10.023Z,9.23
2018-09-12T23:43:38.737Z,9.37
2018-09-12T23:46:07.616Z,9.57
2018-09-12T23:48:36.465Z,10.07
2018-09-12T23:51:05.279Z,8.73
2018-09-12T23:53:34.012Z,8.53
2018-09-12T23:56:02.731Z,9.03
2018-09-12T23:58:31.570Z,8.67
